sensor_id;sensor_type;location;lat;lon;timestamp;temperature;humidity
10692;DHT22;5396;50.950;6.988;2023-08-31T00:02:14;14.20;99.90
10692;DHT22;5396;50.950;6.988;2023-08-31T00:04:39;14.20;99.90
10692;DHT22;5396;50.950;6.988;2023-08-31T00:07:05;14.20;99.90
10692;DHT22;5396;50.950;6.988;2023-08-31T00:09:32;14.30;99.90
10692;DHT22;5396;50.950;6.988;2023-08-31T00:11:58;14.20;99.90
10692;DHT22;5396;50.950;6.988;2023-08-31T00:14:24;14.20;99.90
10692;DHT22;5396;50.950;6.988;2023-08-31T00:16:51;14.20;99.90
10692;DHT22;5396;50.950;6.988;2023-08-31T00:19:16;14.10;99.90
10692;DHT22;5396;50.950;6.988;2023-08-31T00:21:42;14.00;99.90
10692;DHT22;5396;50.950;6.988;2023-08-31T00:24:08;14.00;99.90
10692;DHT22;5396;50.950;6.988;2023-08-31T00:26:35;13.90;99.90
10692;DHT22;5396;50.950;6.988;2023-08-31T00:29:09;13.90;99.90
10692;DHT22;5396;50.950;6.988;2023-08-31T00:31:36;13.90;99.90
10692;DHT22;5396;50.950;6.988;2023-08-31T00:34:02;13.90;99.90
10692;DHT22;5396;50.950;6.988;2023-08-31T00:36:32;13.90;99.90
10692;DHT22;5396;50.950;6.988;2023-08-31T00:39:02;13.90;99.90
10692;DHT22;5396;50.950;6.988;2023-08-31T00:41:28;13.90;99.90
10692;DHT22;5396;50.950;6.988;2023-08-31T00:43:53;13.90;99.90
10692;DHT22;5396;50.950;6.988;2023-08-31T00:46:19;13.80;99.90
10692;DHT22;5396;50.950;6.988;2023-08-31T00:48:45;13.80;99.90
10692;DHT22;5396;50.950;6.988;2023-08-31T00:51:11;13.80;99.90
10692;DHT22;5396;50.950;6.988;2023-08-31T00:53:36;13.90;99.90
10692;DHT22;5396;50.950;6.988;2023-08-31T00:56:02;13.80;99.90
10692;DHT22;5396;50.950;6.988;2023-08-31T00:58:29;13.80;99.90
10692;DHT22;5396;50.950;6.988;2023-08-31T01:01:09;13.80;99.90
10692;DHT22;5396;50.950;6.988;2023-08-31T01:03:53;13.70;99.90
10692;DHT22;5396;50.950;6.988;2023-08-31T01:09:39;13.80;99.90
10692;DHT22;5396;50.950;6.988;2023-08-31T01:12:11;13.80;99.90
10692;DHT22;5396;50.950;6.988;2023-08-31T01:15:02;13.90;99.90
10692;DHT22;5396;50.950;6.988;2023-08-31T01:17:30;13.80;99.90
10692;DHT22;5396;50.950;6.988;2023-08-31T01:19:59;13.80;99.90
10692;DHT22;5396;50.950;6.988;2023-08-31T01:24:58;13.80;99.90
10692;DHT22;5396;50.950;6.988;2023-08-31T01:27:27;13.70;99.90
10692;DHT22;5396;50.950;6.988;2023-08-31T01:29:54;13.70;99.90
10692;DHT22;5396;50.950;6.988;2023-08-31T01:32:20;13.70;99.90
10692;DHT22;5396;50.950;6.988;2023-08-31T01:34:45;13.60;99.90
10692;DHT22;5396;50.950;6.988;2023-08-31T01:37:17;13.60;99.90
10692;DHT22;5396;50.950;6.988;2023-08-31T01:39:55;13.50;99.90
10692;DHT22;5396;50.950;6.988;2023-08-31T01:42:23;13.50;99.90
10692;DHT22;5396;50.950;6.988;2023-08-31T01:44:50;13.50;99.90
10692;DHT22;5396;50.950;6.988;2023-08-31T01:47:17;13.50;99.90
10692;DHT22;5396;50.950;6.988;2023-08-31T01:49:44;13.50;99.90
10692;DHT22;5396;50.950;6.988;2023-08-31T01:52:10;13.40;99.90
10692;DHT22;5396;50.950;6.988;2023-08-31T01:54:35;13.40;99.90
10692;DHT22;5396;50.950;6.988;2023-08-31T01:57:03;13.40;99.90
10692;DHT22;5396;50.950;6.988;2023-08-31T01:59:28;13.30;99.90
10692;DHT22;5396;50.950;6.988;2023-08-31T02:01:54;13.30;99.90
10692;DHT22;5396;50.950;6.988;2023-08-31T02:04:20;13.30;99.90
10692;DHT22;5396;50.950;6.988;2023-08-31T02:06:45;13.20;99.90
10692;DHT22;5396;50.950;6.988;2023-08-31T02:09:13;13.20;99.90
10692;DHT22;5396;50.950;6.988;2023-08-31T02:11:38;13.20;99.90
10692;DHT22;5396;50.950;6.988;2023-08-31T02:14:05;13.20;99.90
10692;DHT22;5396;50.950;6.988;2023-08-31T02:16:31;13.20;99.90
10692;DHT22;5396;50.950;6.988;2023-08-31T02:18:57;13.30;99.90
10692;DHT22;5396;50.950;6.988;2023-08-31T02:21:22;13.30;99.90
10692;DHT22;5396;50.950;6.988;2023-08-31T02:23:48;13.30;99.90
10692;DHT22;5396;50.950;6.988;2023-08-31T02:26:14;13.30;99.90
10692;DHT22;5396;50.950;6.988;2023-08-31T02:28:39;13.20;99.90
10692;DHT22;5396;50.950;6.988;2023-08-31T02:31:05;13.20;99.90
10692;DHT22;5396;50.950;6.988;2023-08-31T02:33:31;13.20;99.90
10692;DHT22;5396;50.950;6.988;2023-08-31T02:35:56;13.20;99.90
10692;DHT22;5396;50.950;6.988;2023-08-31T02:38:23;13.20;99.90
10692;DHT22;5396;50.950;6.988;2023-08-31T02:40:49;13.20;99.90
10692;DHT22;5396;50.950;6.988;2023-08-31T02:43:15;13.20;99.90
10692;DHT22;5396;50.950;6.988;2023-08-31T02:45:40;13.20;99.90
10692;DHT22;5396;50.950;6.988;2023-08-31T02:48:10;13.10;99.90
10692;DHT22;5396;50.950;6.988;2023-08-31T02:50:35;13.10;99.90
10692;DHT22;5396;50.950;6.988;2023-08-31T02:53:01;13.00;99.90
10692;DHT22;5396;50.950;6.988;2023-08-31T02:55:27;13.00;99.90
10692;DHT22;5396;50.950;6.988;2023-08-31T02:57:53;13.00;99.90
10692;DHT22;5396;50.950;6.988;2023-08-31T03:00:19;13.00;99.90
10692;DHT22;5396;50.950;6.988;2023-08-31T03:02:48;13.00;99.90
10692;DHT22;5396;50.950;6.988;2023-08-31T03:05:14;13.00;99.90
10692;DHT22;5396;50.950;6.988;2023-08-31T03:07:39;13.10;99.90
10692;DHT22;5396;50.950;6.988;2023-08-31T03:10:05;13.10;99.90
10692;DHT22;5396;50.950;6.988;2023-08-31T03:12:31;13.10;99.90
10692;DHT22;5396;50.950;6.988;2023-08-31T03:14:57;13.10;99.90
10692;DHT22;5396;50.950;6.988;2023-08-31T03:17:22;13.10;99.90
10692;DHT22;5396;50.950;6.988;2023-08-31T03:19:49;13.10;99.90
10692;DHT22;5396;50.950;6.988;2023-08-31T03:22:14;13.10;99.90
10692;DHT22;5396;50.950;6.988;2023-08-31T03:24:40;13.10;99.90
10692;DHT22;5396;50.950;6.988;2023-08-31T03:27:05;13.10;99.90
10692;DHT22;5396;50.950;6.988;2023-08-31T03:29:31;13.00;99.90
10692;DHT22;5396;50.950;6.988;2023-08-31T03:31:59;13.00;99.90
10692;DHT22;5396;50.950;6.988;2023-08-31T03:34:29;13.00;99.90
10692;DHT22;5396;50.950;6.988;2023-08-31T03:36:54;13.00;99.90
10692;DHT22;5396;50.950;6.988;2023-08-31T03:39:20;13.10;99.90
10692;DHT22;5396;50.950;6.988;2023-08-31T03:41:45;13.10;99.90
10692;DHT22;5396;50.950;6.988;2023-08-31T03:44:11;13.20;99.90
10692;DHT22;5396;50.950;6.988;2023-08-31T03:46:37;13.30;99.90
10692;DHT22;5396;50.950;6.988;2023-08-31T03:49:03;13.30;99.90
10692;DHT22;5396;50.950;6.988;2023-08-31T03:51:28;13.40;99.90
10692;DHT22;5396;50.950;6.988;2023-08-31T03:53:54;13.40;99.90
10692;DHT22;5396;50.950;6.988;2023-08-31T03:56:22;13.40;99.90
10692;DHT22;5396;50.950;6.988;2023-08-31T03:58:48;13.50;99.90
10692;DHT22;5396;50.950;6.988;2023-08-31T04:01:13;13.50;99.90
10692;DHT22;5396;50.950;6.988;2023-08-31T04:03:40;13.50;99.90
10692;DHT22;5396;50.950;6.988;2023-08-31T04:06:05;13.60;99.90
10692;DHT22;5396;50.950;6.988;2023-08-31T04:08:31;13.60;99.90
10692;DHT22;5396;50.950;6.988;2023-08-31T04:10:57;13.60;99.90
10692;DHT22;5396;50.950;6.988;2023-08-31T04:13:22;13.60;99.90
10692;DHT22;5396;50.950;6.988;2023-08-31T04:15:48;13.60;99.90
10692;DHT22;5396;50.950;6.988;2023-08-31T04:18:13;13.50;99.90
10692;DHT22;5396;50.950;6.988;2023-08-31T04:20:49;13.60;99.90
10692;DHT22;5396;50.950;6.988;2023-08-31T04:23:16;13.50;99.90
10692;DHT22;5396;50.950;6.988;2023-08-31T04:25:42;13.50;99.90
10692;DHT22;5396;50.950;6.988;2023-08-31T04:28:07;13.50;99.90
10692;DHT22;5396;50.950;6.988;2023-08-31T04:30:33;13.50;99.90
10692;DHT22;5396;50.950;6.988;2023-08-31T04:32:59;13.40;99.90
10692;DHT22;5396;50.950;6.988;2023-08-31T04:35:24;13.40;99.90
10692;DHT22;5396;50.950;6.988;2023-08-31T04:37:50;13.40;99.90
10692;DHT22;5396;50.950;6.988;2023-08-31T04:40:16;13.40;99.90
10692;DHT22;5396;50.950;6.988;2023-08-31T04:42:42;13.40;99.90
10692;DHT22;5396;50.950;6.988;2023-08-31T04:45:08;13.40;99.90
10692;DHT22;5396;50.950;6.988;2023-08-31T04:47:33;13.30;99.90
10692;DHT22;5396;50.950;6.988;2023-08-31T04:49:59;13.30;99.90
10692;DHT22;5396;50.950;6.988;2023-08-31T04:52:25;13.40;99.90
10692;DHT22;5396;50.950;6.988;2023-08-31T04:54:50;13.40;99.90
10692;DHT22;5396;50.950;6.988;2023-08-31T04:57:16;13.30;99.90
10692;DHT22;5396;50.950;6.988;2023-08-31T04:59:42;13.30;99.90
10692;DHT22;5396;50.950;6.988;2023-08-31T05:02:07;13.30;99.90
10692;DHT22;5396;50.950;6.988;2023-08-31T05:04:33;13.20;99.90
10692;DHT22;5396;50.950;6.988;2023-08-31T05:06:58;13.10;99.90
10692;DHT22;5396;50.950;6.988;2023-08-31T05:09:24;13.10;99.90
10692;DHT22;5396;50.950;6.988;2023-08-31T05:11:50;13.10;99.90
10692;DHT22;5396;50.950;6.988;2023-08-31T05:14:16;13.00;99.90
10692;DHT22;5396;50.950;6.988;2023-08-31T05:16:41;13.00;99.90
10692;DHT22;5396;50.950;6.988;2023-08-31T05:19:07;13.00;99.90
10692;DHT22;5396;50.950;6.988;2023-08-31T05:21:32;13.00;99.90
10692;DHT22;5396;50.950;6.988;2023-08-31T05:23:58;12.90;99.90
10692;DHT22;5396;50.950;6.988;2023-08-31T05:26:24;13.00;99.90
10692;DHT22;5396;50.950;6.988;2023-08-31T05:28:49;12.90;99.90
10692;DHT22;5396;50.950;6.988;2023-08-31T05:31:15;12.90;99.90
10692;DHT22;5396;50.950;6.988;2023-08-31T05:33:41;12.90;99.90
10692;DHT22;5396;50.950;6.988;2023-08-31T05:36:06;12.90;99.90
10692;DHT22;5396;50.950;6.988;2023-08-31T05:38:34;12.90;99.90
10692;DHT22;5396;50.950;6.988;2023-08-31T05:41:06;12.90;99.90
10692;DHT22;5396;50.950;6.988;2023-08-31T05:43:33;12.90;99.90
10692;DHT22;5396;50.950;6.988;2023-08-31T05:45:59;12.90;99.90
10692;DHT22;5396;50.950;6.988;2023-08-31T05:48:25;12.90;99.90
10692;DHT22;5396;50.950;6.988;2023-08-31T05:50:50;12.90;99.90
10692;DHT22;5396;50.950;6.988;2023-08-31T05:53:16;12.90;99.90
10692;DHT22;5396;50.950;6.988;2023-08-31T05:55:42;13.00;99.90
10692;DHT22;5396;50.950;6.988;2023-08-31T05:58:07;13.00;99.90
10692;DHT22;5396;50.950;6.988;2023-08-31T06:00:33;13.00;99.90
10692;DHT22;5396;50.950;6.988;2023-08-31T06:03:01;13.00;99.90
10692;DHT22;5396;50.950;6.988;2023-08-31T06:05:28;13.10;99.90
10692;DHT22;5396;50.950;6.988;2023-08-31T06:07:57;13.10;99.90
10692;DHT22;5396;50.950;6.988;2023-08-31T06:10:22;13.20;99.90
10692;DHT22;5396;50.950;6.988;2023-08-31T06:12:49;13.20;99.90
10692;DHT22;5396;50.950;6.988;2023-08-31T06:15:16;13.20;99.90
10692;DHT22;5396;50.950;6.988;2023-08-31T06:17:42;13.30;99.90
10692;DHT22;5396;50.950;6.988;2023-08-31T06:20:08;13.30;99.90
10692;DHT22;5396;50.950;6.988;2023-08-31T06:22:34;13.30;99.90
10692;DHT22;5396;50.950;6.988;2023-08-31T06:25:00;13.40;99.90
10692;DHT22;5396;50.950;6.988;2023-08-31T06:27:26;13.50;99.90
10692;DHT22;5396;50.950;6.988;2023-08-31T06:29:52;13.50;99.90
10692;DHT22;5396;50.950;6.988;2023-08-31T06:32:17;13.60;99.90
10692;DHT22;5396;50.950;6.988;2023-08-31T06:34:44;13.70;99.90
10692;DHT22;5396;50.950;6.988;2023-08-31T06:37:09;13.70;99.90
10692;DHT22;5396;50.950;6.988;2023-08-31T06:39:35;13.80;99.90
10692;DHT22;5396;50.950;6.988;2023-08-31T06:42:01;13.90;99.90
10692;DHT22;5396;50.950;6.988;2023-08-31T06:44:27;13.90;99.90
10692;DHT22;5396;50.950;6.988;2023-08-31T06:46:55;14.00;99.90
10692;DHT22;5396;50.950;6.988;2023-08-31T06:49:21;14.10;99.90
10692;DHT22;5396;50.950;6.988;2023-08-31T06:51:47;14.10;99.90
10692;DHT22;5396;50.950;6.988;2023-08-31T06:54:12;14.20;99.90
10692;DHT22;5396;50.950;6.988;2023-08-31T06:56:38;14.20;99.90
10692;DHT22;5396;50.950;6.988;2023-08-31T06:59:03;14.30;99.90
10692;DHT22;5396;50.950;6.988;2023-08-31T07:01:29;14.40;99.90
10692;DHT22;5396;50.950;6.988;2023-08-31T07:03:55;14.40;99.90
10692;DHT22;5396;50.950;6.988;2023-08-31T07:06:21;14.50;99.90
10692;DHT22;5396;50.950;6.988;2023-08-31T07:08:47;14.50;99.90
10692;DHT22;5396;50.950;6.988;2023-08-31T07:11:14;14.50;99.90
10692;DHT22;5396;50.950;6.988;2023-08-31T07:13:40;14.60;99.90
10692;DHT22;5396;50.950;6.988;2023-08-31T07:16:06;14.70;99.90
10692;DHT22;5396;50.950;6.988;2023-08-31T07:18:31;14.80;99.90
10692;DHT22;5396;50.950;6.988;2023-08-31T07:20:57;14.90;99.90
10692;DHT22;5396;50.950;6.988;2023-08-31T07:23:23;14.90;99.90
10692;DHT22;5396;50.950;6.988;2023-08-31T07:25:48;14.90;99.90
10692;DHT22;5396;50.950;6.988;2023-08-31T07:28:14;15.00;99.90
10692;DHT22;5396;50.950;6.988;2023-08-31T07:30:40;15.10;99.90
10692;DHT22;5396;50.950;6.988;2023-08-31T07:33:06;15.00;99.90
10692;DHT22;5396;50.950;6.988;2023-08-31T07:35:32;15.00;99.90
10692;DHT22;5396;50.950;6.988;2023-08-31T07:37:58;15.10;99.90
10692;DHT22;5396;50.950;6.988;2023-08-31T07:40:24;15.10;99.90
10692;DHT22;5396;50.950;6.988;2023-08-31T07:42:50;15.20;99.90
10692;DHT22;5396;50.950;6.988;2023-08-31T07:45:17;15.30;99.90
10692;DHT22;5396;50.950;6.988;2023-08-31T07:47:42;15.40;99.90
10692;DHT22;5396;50.950;6.988;2023-08-31T07:50:09;15.50;99.90
10692;DHT22;5396;50.950;6.988;2023-08-31T07:52:34;15.50;99.90
10692;DHT22;5396;50.950;6.988;2023-08-31T07:55:00;15.60;99.90
10692;DHT22;5396;50.950;6.988;2023-08-31T07:57:26;15.70;99.90
10692;DHT22;5396;50.950;6.988;2023-08-31T07:59:51;15.80;99.90
10692;DHT22;5396;50.950;6.988;2023-08-31T08:02:17;15.90;99.90
10692;DHT22;5396;50.950;6.988;2023-08-31T08:04:45;16.10;99.90
10692;DHT22;5396;50.950;6.988;2023-08-31T08:07:10;16.30;99.90
10692;DHT22;5396;50.950;6.988;2023-08-31T08:09:36;16.50;99.90
10692;DHT22;5396;50.950;6.988;2023-08-31T08:12:02;16.50;99.90
10692;DHT22;5396;50.950;6.988;2023-08-31T08:14:28;16.40;99.90
10692;DHT22;5396;50.950;6.988;2023-08-31T08:16:54;16.40;99.90
10692;DHT22;5396;50.950;6.988;2023-08-31T08:19:23;16.30;99.90
10692;DHT22;5396;50.950;6.988;2023-08-31T08:21:49;16.20;99.90
10692;DHT22;5396;50.950;6.988;2023-08-31T08:24:15;16.10;99.90
10692;DHT22;5396;50.950;6.988;2023-08-31T08:26:41;16.20;99.90
10692;DHT22;5396;50.950;6.988;2023-08-31T08:29:06;16.30;99.90
10692;DHT22;5396;50.950;6.988;2023-08-31T08:31:32;16.40;99.90
10692;DHT22;5396;50.950;6.988;2023-08-31T08:33:57;16.50;99.90
10692;DHT22;5396;50.950;6.988;2023-08-31T08:36:23;16.50;99.90
10692;DHT22;5396;50.950;6.988;2023-08-31T08:38:48;16.50;99.90
10692;DHT22;5396;50.950;6.988;2023-08-31T08:41:14;16.40;99.90
10692;DHT22;5396;50.950;6.988;2023-08-31T08:43:47;16.50;99.90
10692;DHT22;5396;50.950;6.988;2023-08-31T08:46:13;16.50;99.90
10692;DHT22;5396;50.950;6.988;2023-08-31T08:48:39;16.50;99.90
10692;DHT22;5396;50.950;6.988;2023-08-31T08:51:06;16.60;99.90
10692;DHT22;5396;50.950;6.988;2023-08-31T08:53:33;16.70;99.90
10692;DHT22;5396;50.950;6.988;2023-08-31T08:55:59;16.70;99.90
10692;DHT22;5396;50.950;6.988;2023-08-31T08:58:24;16.70;99.90
10692;DHT22;5396;50.950;6.988;2023-08-31T09:00:51;16.80;99.90
10692;DHT22;5396;50.950;6.988;2023-08-31T09:03:17;17.00;99.90
10692;DHT22;5396;50.950;6.988;2023-08-31T09:05:43;17.20;99.90
10692;DHT22;5396;50.950;6.988;2023-08-31T09:08:09;17.30;99.90
10692;DHT22;5396;50.950;6.988;2023-08-31T09:10:39;17.40;99.90
10692;DHT22;5396;50.950;6.988;2023-08-31T09:13:07;17.40;99.90
10692;DHT22;5396;50.950;6.988;2023-08-31T09:15:45;17.50;99.90
10692;DHT22;5396;50.950;6.988;2023-08-31T09:18:23;17.60;99.90
10692;DHT22;5396;50.950;6.988;2023-08-31T09:20:49;17.50;99.90
10692;DHT22;5396;50.950;6.988;2023-08-31T09:23:16;17.40;99.90
10692;DHT22;5396;50.950;6.988;2023-08-31T09:25:47;17.30;99.90
10692;DHT22;5396;50.950;6.988;2023-08-31T09:28:19;17.30;99.90
10692;DHT22;5396;50.950;6.988;2023-08-31T09:30:46;17.30;99.90
10692;DHT22;5396;50.950;6.988;2023-08-31T09:33:15;17.40;99.90
10692;DHT22;5396;50.950;6.988;2023-08-31T09:38:15;17.60;99.90
10692;DHT22;5396;50.950;6.988;2023-08-31T09:40:41;17.70;99.90
10692;DHT22;5396;50.950;6.988;2023-08-31T09:43:07;17.80;99.90
10692;DHT22;5396;50.950;6.988;2023-08-31T09:45:34;18.00;99.90
10692;DHT22;5396;50.950;6.988;2023-08-31T09:48:02;18.20;99.90
10692;DHT22;5396;50.950;6.988;2023-08-31T09:50:33;18.40;99.90
10692;DHT22;5396;50.950;6.988;2023-08-31T09:53:04;18.40;99.90
10692;DHT22;5396;50.950;6.988;2023-08-31T09:55:31;18.60;99.90
10692;DHT22;5396;50.950;6.988;2023-08-31T09:57:59;18.80;99.90
10692;DHT22;5396;50.950;6.988;2023-08-31T10:00:31;18.80;99.90
10692;DHT22;5396;50.950;6.988;2023-08-31T10:03:02;18.90;99.90
10692;DHT22;5396;50.950;6.988;2023-08-31T10:05:28;19.00;99.90
10692;DHT22;5396;50.950;6.988;2023-08-31T10:07:54;19.00;99.90
10692;DHT22;5396;50.950;6.988;2023-08-31T10:10:20;18.90;99.90
10692;DHT22;5396;50.950;6.988;2023-08-31T10:12:50;18.90;99.90
10692;DHT22;5396;50.950;6.988;2023-08-31T10:15:18;18.80;99.90
10692;DHT22;5396;50.950;6.988;2023-08-31T10:17:44;19.10;99.90
10692;DHT22;5396;50.950;6.988;2023-08-31T10:20:12;19.30;99.90
10692;DHT22;5396;50.950;6.988;2023-08-31T10:22:39;19.40;99.90
10692;DHT22;5396;50.950;6.988;2023-08-31T10:25:06;19.30;99.90
10692;DHT22;5396;50.950;6.988;2023-08-31T10:27:39;19.40;99.90
10692;DHT22;5396;50.950;6.988;2023-08-31T10:32:41;19.20;99.90
10692;DHT22;5396;50.950;6.988;2023-08-31T10:35:09;19.20;99.90
10692;DHT22;5396;50.950;6.988;2023-08-31T10:37:35;19.10;99.90
10692;DHT22;5396;50.950;6.988;2023-08-31T10:40:10;19.00;99.90
10692;DHT22;5396;50.950;6.988;2023-08-31T10:42:46;19.00;99.90
10692;DHT22;5396;50.950;6.988;2023-08-31T10:45:22;19.00;99.90
10692;DHT22;5396;50.950;6.988;2023-08-31T10:47:47;19.10;99.90
10692;DHT22;5396;50.950;6.988;2023-08-31T10:50:22;19.30;99.90
10692;DHT22;5396;50.950;6.988;2023-08-31T10:52:48;19.50;99.90
10692;DHT22;5396;50.950;6.988;2023-08-31T10:55:14;19.80;99.90
10692;DHT22;5396;50.950;6.988;2023-08-31T10:57:41;19.90;99.90
10692;DHT22;5396;50.950;6.988;2023-08-31T11:00:08;19.90;99.90
10692;DHT22;5396;50.950;6.988;2023-08-31T11:07:31;19.60;99.90
10692;DHT22;5396;50.950;6.988;2023-08-31T11:10:18;19.50;99.90
10692;DHT22;5396;50.950;6.988;2023-08-31T11:12:46;19.70;99.90
10692;DHT22;5396;50.950;6.988;2023-08-31T11:15:13;19.70;99.90
10692;DHT22;5396;50.950;6.988;2023-08-31T11:17:40;19.70;99.90
10692;DHT22;5396;50.950;6.988;2023-08-31T11:20:07;19.80;99.90
10692;DHT22;5396;50.950;6.988;2023-08-31T11:22:38;19.90;99.90
10692;DHT22;5396;50.950;6.988;2023-08-31T11:25:04;20.10;99.90
10692;DHT22;5396;50.950;6.988;2023-08-31T11:27:30;20.10;99.90
10692;DHT22;5396;50.950;6.988;2023-08-31T11:29:55;20.10;99.90
10692;DHT22;5396;50.950;6.988;2023-08-31T11:32:24;20.10;99.90
10692;DHT22;5396;50.950;6.988;2023-08-31T11:34:52;19.90;99.90
10692;DHT22;5396;50.950;6.988;2023-08-31T11:37:19;19.80;99.90
10692;DHT22;5396;50.950;6.988;2023-08-31T11:39:51;19.60;99.90
10692;DHT22;5396;50.950;6.988;2023-08-31T11:42:18;19.40;99.90
10692;DHT22;5396;50.950;6.988;2023-08-31T11:44:49;19.50;99.90
10692;DHT22;5396;50.950;6.988;2023-08-31T11:47:16;19.60;99.90
10692;DHT22;5396;50.950;6.988;2023-08-31T11:49:42;19.40;99.90
10692;DHT22;5396;50.950;6.988;2023-08-31T11:52:10;19.30;99.90
10692;DHT22;5396;50.950;6.988;2023-08-31T11:54:37;19.10;99.90
10692;DHT22;5396;50.950;6.988;2023-08-31T11:57:07;18.80;99.90
10692;DHT22;5396;50.950;6.988;2023-08-31T11:59:35;18.60;99.90
10692;DHT22;5396;50.950;6.988;2023-08-31T12:02:01;18.40;99.90
10692;DHT22;5396;50.950;6.988;2023-08-31T12:04:28;18.20;99.90
10692;DHT22;5396;50.950;6.988;2023-08-31T12:07:01;18.20;99.90
10692;DHT22;5396;50.950;6.988;2023-08-31T12:09:30;18.20;99.90
10692;DHT22;5396;50.950;6.988;2023-08-31T12:11:55;18.40;99.90
10692;DHT22;5396;50.950;6.988;2023-08-31T12:14:23;18.60;99.90
10692;DHT22;5396;50.950;6.988;2023-08-31T12:16:49;18.80;99.90
10692;DHT22;5396;50.950;6.988;2023-08-31T12:19:15;19.00;99.90
10692;DHT22;5396;50.950;6.988;2023-08-31T12:21:42;19.20;99.90
10692;DHT22;5396;50.950;6.988;2023-08-31T12:24:09;19.30;99.90
10692;DHT22;5396;50.950;6.988;2023-08-31T12:26:35;19.40;99.90
10692;DHT22;5396;50.950;6.988;2023-08-31T12:29:01;19.20;99.90
10692;DHT22;5396;50.950;6.988;2023-08-31T12:31:26;19.30;99.90
10692;DHT22;5396;50.950;6.988;2023-08-31T12:33:52;19.30;99.90
10692;DHT22;5396;50.950;6.988;2023-08-31T12:36:18;19.20;99.90
10692;DHT22;5396;50.950;6.988;2023-08-31T12:38:43;19.10;99.90
10692;DHT22;5396;50.950;6.988;2023-08-31T12:41:09;19.00;99.90
10692;DHT22;5396;50.950;6.988;2023-08-31T12:43:35;19.00;99.90
10692;DHT22;5396;50.950;6.988;2023-08-31T12:46:00;19.00;99.90
10692;DHT22;5396;50.950;6.988;2023-08-31T12:48:26;18.80;99.90
10692;DHT22;5396;50.950;6.988;2023-08-31T12:50:52;18.50;99.90
10692;DHT22;5396;50.950;6.988;2023-08-31T12:53:22;18.20;99.90
10692;DHT22;5396;50.950;6.988;2023-08-31T12:55:48;18.00;99.90
10692;DHT22;5396;50.950;6.988;2023-08-31T12:58:13;18.00;99.90
10692;DHT22;5396;50.950;6.988;2023-08-31T13:00:39;18.10;99.90
10692;DHT22;5396;50.950;6.988;2023-08-31T13:03:05;18.30;99.90
10692;DHT22;5396;50.950;6.988;2023-08-31T13:05:32;18.50;99.90
10692;DHT22;5396;50.950;6.988;2023-08-31T13:07:58;18.90;99.90
10692;DHT22;5396;50.950;6.988;2023-08-31T13:10:23;19.30;99.90
10692;DHT22;5396;50.950;6.988;2023-08-31T13:12:49;20.50;99.90
10692;DHT22;5396;50.950;6.988;2023-08-31T13:15:15;22.40;99.90
10692;DHT22;5396;50.950;6.988;2023-08-31T13:17:40;22.60;99.90
10692;DHT22;5396;50.950;6.988;2023-08-31T13:20:06;22.10;99.90
10692;DHT22;5396;50.950;6.988;2023-08-31T13:22:33;21.60;99.90
10692;DHT22;5396;50.950;6.988;2023-08-31T13:24:59;22.50;99.90
10692;DHT22;5396;50.950;6.988;2023-08-31T13:27:24;23.10;99.90
10692;DHT22;5396;50.950;6.988;2023-08-31T13:29:51;22.90;99.90
10692;DHT22;5396;50.950;6.988;2023-08-31T13:32:16;22.20;99.90
10692;DHT22;5396;50.950;6.988;2023-08-31T13:34:42;21.70;99.90
10692;DHT22;5396;50.950;6.988;2023-08-31T13:37:07;21.70;99.90
10692;DHT22;5396;50.950;6.988;2023-08-31T13:39:35;21.80;99.90
10692;DHT22;5396;50.950;6.988;2023-08-31T13:42:05;21.70;99.90
10692;DHT22;5396;50.950;6.988;2023-08-31T13:44:32;22.10;99.90
10692;DHT22;5396;50.950;6.988;2023-08-31T13:46:57;22.50;99.90
10692;DHT22;5396;50.950;6.988;2023-08-31T13:49:23;22.50;99.90
10692;DHT22;5396;50.950;6.988;2023-08-31T13:51:49;21.90;99.90
10692;DHT22;5396;50.950;6.988;2023-08-31T13:54:14;21.60;99.90
10692;DHT22;5396;50.950;6.988;2023-08-31T13:56:40;21.60;99.90
10692;DHT22;5396;50.950;6.988;2023-08-31T13:59:05;21.40;99.90
10692;DHT22;5396;50.950;6.988;2023-08-31T14:01:31;21.60;99.90
10692;DHT22;5396;50.950;6.988;2023-08-31T14:03:57;21.90;99.90
10692;DHT22;5396;50.950;6.988;2023-08-31T14:06:22;21.90;99.90
10692;DHT22;5396;50.950;6.988;2023-08-31T14:08:48;22.80;99.90
10692;DHT22;5396;50.950;6.988;2023-08-31T14:11:14;23.70;99.90
10692;DHT22;5396;50.950;6.988;2023-08-31T14:13:39;24.70;99.90
10692;DHT22;5396;50.950;6.988;2023-08-31T14:16:06;25.40;99.90
10692;DHT22;5396;50.950;6.988;2023-08-31T14:18:32;25.60;99.90
10692;DHT22;5396;50.950;6.988;2023-08-31T14:20:58;26.00;99.90
10692;DHT22;5396;50.950;6.988;2023-08-31T14:23:25;26.50;99.90
10692;DHT22;5396;50.950;6.988;2023-08-31T14:25:51;27.00;99.90
10692;DHT22;5396;50.950;6.988;2023-08-31T14:28:16;26.60;99.90
10692;DHT22;5396;50.950;6.988;2023-08-31T14:30:42;26.80;99.90
10692;DHT22;5396;50.950;6.988;2023-08-31T14:33:07;27.10;99.90
10692;DHT22;5396;50.950;6.988;2023-08-31T14:35:36;27.30;99.90
10692;DHT22;5396;50.950;6.988;2023-08-31T14:38:02;27.50;99.90
10692;DHT22;5396;50.950;6.988;2023-08-31T14:40:28;27.70;99.90
10692;DHT22;5396;50.950;6.988;2023-08-31T14:42:54;26.80;99.90
10692;DHT22;5396;50.950;6.988;2023-08-31T14:45:19;26.50;99.90
10692;DHT22;5396;50.950;6.988;2023-08-31T14:47:45;25.90;99.90
10692;DHT22;5396;50.950;6.988;2023-08-31T14:50:11;24.50;99.90
10692;DHT22;5396;50.950;6.988;2023-08-31T14:52:36;23.10;99.90
10692;DHT22;5396;50.950;6.988;2023-08-31T14:55:02;22.40;99.90
10692;DHT22;5396;50.950;6.988;2023-08-31T14:57:30;21.90;99.90
10692;DHT22;5396;50.950;6.988;2023-08-31T14:59:55;21.50;99.90
10692;DHT22;5396;50.950;6.988;2023-08-31T15:02:24;21.40;99.90
10692;DHT22;5396;50.950;6.988;2023-08-31T15:04:50;21.20;99.90
10692;DHT22;5396;50.950;6.988;2023-08-31T15:07:16;21.20;99.90
10692;DHT22;5396;50.950;6.988;2023-08-31T15:09:42;21.20;99.90
10692;DHT22;5396;50.950;6.988;2023-08-31T15:12:08;21.20;99.90
10692;DHT22;5396;50.950;6.988;2023-08-31T15:14:34;21.20;99.90
10692;DHT22;5396;50.950;6.988;2023-08-31T15:16:59;21.10;99.90
10692;DHT22;5396;50.950;6.988;2023-08-31T15:19:25;21.00;99.90
10692;DHT22;5396;50.950;6.988;2023-08-31T15:21:50;20.80;99.90
10692;DHT22;5396;50.950;6.988;2023-08-31T15:24:16;20.60;99.90
10692;DHT22;5396;50.950;6.988;2023-08-31T15:26:42;20.30;99.90
10692;DHT22;5396;50.950;6.988;2023-08-31T15:29:09;20.30;99.90
10692;DHT22;5396;50.950;6.988;2023-08-31T15:31:34;20.10;99.90
10692;DHT22;5396;50.950;6.988;2023-08-31T15:34:00;20.00;99.90
10692;DHT22;5396;50.950;6.988;2023-08-31T15:36:25;20.00;99.90
10692;DHT22;5396;50.950;6.988;2023-08-31T15:38:51;20.00;99.90
10692;DHT22;5396;50.950;6.988;2023-08-31T15:41:17;20.10;99.90
10692;DHT22;5396;50.950;6.988;2023-08-31T15:43:42;20.10;99.90
10692;DHT22;5396;50.950;6.988;2023-08-31T15:46:08;20.10;99.90
10692;DHT22;5396;50.950;6.988;2023-08-31T15:48:34;20.10;99.90
10692;DHT22;5396;50.950;6.988;2023-08-31T15:50:59;20.10;99.90
10692;DHT22;5396;50.950;6.988;2023-08-31T15:53:25;20.00;99.90
10692;DHT22;5396;50.950;6.988;2023-08-31T15:55:53;20.00;99.90
10692;DHT22;5396;50.950;6.988;2023-08-31T15:58:19;19.90;99.90